createdAt,value
2023-06-03T00:00:13.436Z,8.50
2023-06-03T00:02:40.566Z,7.60
2023-06-03T00:05:07.936Z,8.50
2023-06-03T00:07:34.536Z,7.50
2023-06-03T00:10:01.258Z,8.70
2023-06-03T00:12:28.194Z,9.00
2023-06-03T00:14:54.876Z,8.10
2023-06-03T00:17:21.545Z,8.20
2023-06-03T00:19:48.404Z,8.30
2023-06-03T00:22:15.393Z,7.30
2023-06-03T00:24:41.967Z,8.10
2023-06-03T00:27:08.977Z,8.70
2023-06-03T00:29:36.058Z,6.70
2023-06-03T00:32:02.743Z,9.10
2023-06-03T00:34:29.587Z,7.50
2023-06-03T00:36:56.206Z,10.60
2023-06-03T00:39:23.368Z,14.00
2023-06-03T00:41:49.880Z,8.60
2023-06-03T00:44:16.471Z,10.90
2023-06-03T00:46:43.234Z,8.50
2023-06-03T00:49:10.235Z,8.90
2023-06-03T00:51:37.486Z,8.90
2023-06-03T00:54:04.575Z,9.10
2023-06-03T00:56:38.937Z,9.20
2023-06-03T00:59:05.443Z,8.40
2023-06-03T01:01:31.996Z,10.80
2023-06-03T01:03:59.062Z,9.80
2023-06-03T01:06:33.761Z,9.80
2023-06-03T01:09:25.396Z,8.70
2023-06-03T01:14:41.274Z,7.90
2023-06-03T01:17:08.766Z,10.70
2023-06-03T01:19:45.603Z,11.00
2023-06-03T01:22:13.327Z,9.70
2023-06-03T01:24:39.973Z,8.60
2023-06-03T01:27:06.989Z,11.60
2023-06-03T01:29:33.476Z,9.90
2023-06-03T01:32:01.383Z,8.60
2023-06-03T01:34:28.860Z,12.90
2023-06-03T01:36:57.566Z,8.20
2023-06-03T01:39:24.778Z,11.40
2023-06-03T01:41:53.632Z,7.50
2023-06-03T01:44:20.172Z,11.10
2023-06-03T01:46:47.292Z,10.60
2023-06-03T01:49:15.096Z,9.60
2023-06-03T01:51:41.950Z,8.50
2023-06-03T01:54:08.414Z,8.40
2023-06-03T01:56:34.934Z,11.60
2023-06-03T01:59:01.481Z,11.40
2023-06-03T02:01:28.017Z,11.80
2023-06-03T02:03:54.914Z,8.50
2023-06-03T02:06:21.432Z,9.60
2023-06-03T02:08:47.914Z,10.10
2023-06-03T02:11:14.442Z,11.50
2023-06-03T02:13:41.111Z,9.60
2023-06-03T02:16:07.596Z,9.70
2023-06-03T02:18:34.086Z,10.40
2023-06-03T02:21:00.661Z,11.70
2023-06-03T02:23:27.198Z,10.90
2023-06-03T02:25:53.948Z,9.50
2023-06-03T02:28:20.520Z,13.10
2023-06-03T02:30:47.215Z,15.70
2023-06-03T02:33:13.753Z,12.70
2023-06-03T02:35:40.220Z,12.20
2023-06-03T02:38:06.747Z,13.60
2023-06-03T02:40:33.251Z,9.40
2023-06-03T02:42:59.859Z,13.80
2023-06-03T02:45:26.337Z,14.90
2023-06-03T02:47:52.974Z,14.60
2023-06-03T02:50:19.535Z,12.70
2023-06-03T02:52:46.040Z,12.50
2023-06-03T02:55:12.669Z,11.50
2023-06-03T02:57:39.297Z,11.90
2023-06-03T03:00:06.808Z,11.90
2023-06-03T03:02:33.382Z,9.60
2023-06-03T03:05:00.012Z,9.70
2023-06-03T03:07:26.516Z,9.80
2023-06-03T03:09:53.134Z,10.30
2023-06-03T03:12:19.571Z,12.50
2023-06-03T03:14:46.320Z,11.50
2023-06-03T03:17:12.813Z,8.20
2023-06-03T03:19:39.522Z,8.70
2023-06-03T03:22:06.693Z,9.60
2023-06-03T03:24:33.426Z,6.00
2023-06-03T03:27:00.805Z,7.20
2023-06-03T03:29:27.517Z,8.60
2023-06-03T03:32:03.338Z,7.60
2023-06-03T03:34:30.280Z,5.90
2023-06-03T03:36:56.939Z,7.90
2023-06-03T03:39:23.417Z,5.90
2023-06-03T03:41:49.872Z,5.10
2023-06-03T03:44:16.375Z,4.80
2023-06-03T03:46:59.622Z,8.50
2023-06-03T03:49:31.510Z,8.50
2023-06-03T03:52:04.451Z,7.90
2023-06-03T03:54:31.755Z,15.10
2023-06-03T03:56:58.975Z,7.00
2023-06-03T03:59:27.994Z,8.50
2023-06-03T04:01:54.998Z,7.50
2023-06-03T04:04:43.685Z,7.60
2023-06-03T04:07:11.088Z,7.00
2023-06-03T04:09:38.550Z,6.60
2023-06-03T04:12:11.289Z,6.40
2023-06-03T04:14:46.648Z,5.90
2023-06-03T04:17:13.988Z,5.30
2023-06-03T04:19:40.915Z,6.30
2023-06-03T04:22:09.093Z,6.10
2023-06-03T04:24:37.948Z,5.60
2023-06-03T04:27:05.069Z,7.90
2023-06-03T04:29:32.117Z,5.20
2023-06-03T04:31:58.972Z,6.50
2023-06-03T04:34:29.701Z,5.80
2023-06-03T04:36:56.587Z,5.80
2023-06-03T04:39:23.631Z,10.00
2023-06-03T04:41:50.155Z,8.80
2023-06-03T04:44:16.705Z,5.40
2023-06-03T04:46:43.385Z,10.40
2023-06-03T04:49:09.934Z,8.90
2023-06-03T04:51:36.431Z,7.90
2023-06-03T04:54:03.505Z,6.30
2023-06-03T04:56:29.974Z,7.00
2023-06-03T04:59:01.045Z,7.10
2023-06-03T05:01:28.337Z,7.50
2023-06-03T05:03:56.046Z,6.70
2023-06-03T05:06:22.765Z,6.30
2023-06-03T05:08:49.663Z,7.00
2023-06-03T05:11:17.463Z,8.30
2023-06-03T05:13:44.430Z,6.30
2023-06-03T05:16:12.316Z,6.60
2023-06-03T05:18:38.967Z,5.10
2023-06-03T05:21:05.981Z,8.80
2023-06-03T05:23:32.670Z,5.00
2023-06-03T05:25:59.262Z,5.60
2023-06-03T05:28:26.576Z,5.80
2023-06-03T05:30:53.181Z,6.80
2023-06-03T05:33:30.014Z,7.10
2023-06-03T05:35:57.199Z,4.40
2023-06-03T05:38:24.798Z,6.10
2023-06-03T05:40:52.632Z,4.60
2023-06-03T05:43:20.204Z,5.40
2023-06-03T05:45:47.713Z,4.90
2023-06-03T05:48:14.777Z,5.60
2023-06-03T05:50:50.309Z,6.30
2023-06-03T05:53:20.781Z,4.00
2023-06-03T05:55:48.754Z,4.90
2023-06-03T05:58:15.299Z,3.50
2023-06-03T06:00:41.821Z,6.20
2023-06-03T06:03:09.668Z,4.80
2023-06-03T06:05:36.448Z,7.10
2023-06-03T06:08:02.979Z,5.00
2023-06-03T06:10:29.513Z,5.60
2023-06-03T06:12:56.102Z,4.60
2023-06-03T06:15:22.993Z,6.60
2023-06-03T06:17:49.543Z,5.80
2023-06-03T06:20:16.104Z,4.20
2023-06-03T06:22:42.704Z,5.10
2023-06-03T06:25:10.218Z,4.20
2023-06-03T06:27:36.975Z,5.30
2023-06-03T06:30:04.211Z,5.60
2023-06-03T06:32:31.040Z,9.70
2023-06-03T06:34:57.881Z,5.50
2023-06-03T06:37:24.483Z,4.60
2023-06-03T06:39:54.377Z,4.20
2023-06-03T06:42:33.032Z,6.60
2023-06-03T06:45:22.933Z,6.70
2023-06-03T06:47:49.702Z,7.30
2023-06-03T06:50:51.798Z,5.30
2023-06-03T06:53:19.273Z,3.50
2023-06-03T06:55:56.276Z,5.50
2023-06-03T06:58:25.629Z,6.00
2023-06-03T07:00:53.383Z,6.70
2023-06-03T07:03:21.200Z,5.90
2023-06-03T07:05:48.338Z,6.90
2023-06-03T07:08:15.635Z,5.60
2023-06-03T07:10:42.172Z,5.00
2023-06-03T07:13:08.977Z,4.80
2023-06-03T07:15:40.072Z,5.30
2023-06-03T07:18:07.191Z,7.30
2023-06-03T07:20:36.430Z,6.80
2023-06-03T07:23:10.086Z,4.40
2023-06-03T07:25:47.472Z,6.40
2023-06-03T07:28:22.023Z,6.30
2023-06-03T07:30:49.524Z,5.70
2023-06-03T07:33:30.789Z,5.50
2023-06-03T07:36:02.587Z,7.30
2023-06-03T07:38:38.337Z,11.20
2023-06-03T07:41:09.528Z,6.80
2023-06-03T07:43:37.591Z,6.80
2023-06-03T07:46:05.326Z,3.50
2023-06-03T07:48:32.963Z,5.50
2023-06-03T07:50:59.658Z,5.20
2023-06-03T07:53:26.502Z,4.40
2023-06-03T07:55:53.014Z,5.30
2023-06-03T07:58:19.560Z,5.20
2023-06-03T08:00:53.035Z,4.70
2023-06-03T08:03:21.391Z,6.70
2023-06-03T08:05:50.089Z,6.70
2023-06-03T08:08:18.566Z,6.50
2023-06-03T08:10:49.437Z,5.80
2023-06-03T08:13:19.180Z,5.30
2023-06-03T08:15:45.662Z,3.50
2023-06-03T08:18:33.928Z,7.30
2023-06-03T08:21:04.481Z,5.40
2023-06-03T08:23:31.472Z,5.10
2023-06-03T08:26:00.886Z,5.60
2023-06-03T08:28:27.795Z,5.20
2023-06-03T08:30:54.898Z,6.30
2023-06-03T08:33:21.756Z,6.30
2023-06-03T08:35:48.581Z,4.20
2023-06-03T08:38:16.966Z,5.70
2023-06-03T08:40:51.696Z,6.70
2023-06-03T08:43:21.390Z,4.60
2023-06-03T08:46:03.652Z,5.50
2023-06-03T08:49:04.509Z,4.20
2023-06-03T08:51:41.759Z,7.60
2023-06-03T08:54:12.839Z,5.10
2023-06-03T08:56:42.797Z,3.70
2023-06-03T08:59:13.944Z,5.90
2023-06-03T09:01:43.168Z,4.80
2023-06-03T09:04:14.870Z,4.90
2023-06-03T09:06:47.722Z,6.10
2023-06-03T09:09:16.379Z,4.70
2023-06-03T09:11:45.252Z,5.80
2023-06-03T09:14:12.298Z,4.90
2023-06-03T09:16:39.610Z,6.60
2023-06-03T09:19:06.824Z,4.10
2023-06-03T09:21:34.042Z,4.40
2023-06-03T09:24:00.574Z,4.00
2023-06-03T09:26:27.226Z,5.20
2023-06-03T09:28:53.794Z,3.50
2023-06-03T09:31:21.338Z,5.30
2023-06-03T09:33:49.056Z,3.50
2023-06-03T09:36:18.102Z,4.50
2023-06-03T09:38:54.930Z,13.60
2023-06-03T09:41:29.066Z,6.70
2023-06-03T09:44:03.422Z,3.50
2023-06-03T09:46:39.108Z,5.30
2023-06-03T09:49:10.147Z,4.80
2023-06-03T09:51:47.594Z,6.40
2023-06-03T09:54:17.382Z,3.80
2023-06-03T09:56:46.320Z,4.20
2023-06-03T09:59:21.394Z,5.60
2023-06-03T10:01:50.576Z,3.70
2023-06-03T10:04:25.856Z,5.90
2023-06-03T10:07:15.620Z,5.00
2023-06-03T10:09:43.877Z,4.40
2023-06-03T10:12:11.027Z,2.90
2023-06-03T10:14:56.395Z,6.40
2023-06-03T10:17:22.946Z,4.10
2023-06-03T10:19:49.787Z,7.80
2023-06-03T10:22:17.877Z,7.30
2023-06-03T10:24:46.507Z,4.30
2023-06-03T10:27:14.793Z,5.60
2023-06-03T10:29:41.811Z,3.40
2023-06-03T10:32:10.372Z,4.40
2023-06-03T10:34:40.997Z,6.90
2023-06-03T10:37:09.375Z,6.30
2023-06-03T10:39:36.475Z,5.80
2023-06-03T10:42:06.513Z,5.50
2023-06-03T10:44:34.442Z,5.60
2023-06-03T10:47:09.088Z,6.40
2023-06-03T10:49:45.116Z,4.70
2023-06-03T10:52:59.901Z,6.70
2023-06-03T10:55:58.116Z,5.30
2023-06-03T10:58:25.913Z,4.70
2023-06-03T11:00:59.527Z,5.60
2023-06-03T11:03:31.040Z,10.30
2023-06-03T11:06:19.518Z,9.10
2023-06-03T11:09:07.019Z,4.50
2023-06-03T11:11:39.840Z,3.40
2023-06-03T11:14:06.539Z,7.20
2023-06-03T11:16:58.086Z,6.00
2023-06-03T11:19:33.646Z,3.70
2023-06-03T11:22:01.893Z,5.60
2023-06-03T11:24:40.647Z,5.90
2023-06-03T11:27:13.504Z,5.30
2023-06-03T11:29:46.096Z,8.80
2023-06-03T11:32:13.467Z,7.50
2023-06-03T11:34:40.199Z,5.70
2023-06-03T11:37:06.689Z,4.30
2023-06-03T11:40:05.914Z,5.00
2023-06-03T11:42:52.796Z,4.20
2023-06-03T11:45:22.184Z,4.70
2023-06-03T11:47:57.941Z,4.30
2023-06-03T11:50:27.400Z,7.70
2023-06-03T11:52:54.769Z,6.80
2023-06-03T11:55:25.884Z,4.40
2023-06-03T11:57:53.127Z,4.60
2023-06-03T12:00:20.300Z,4.50
2023-06-03T12:02:47.475Z,4.00
2023-06-03T12:05:15.893Z,4.70
2023-06-03T12:07:52.985Z,3.70
2023-06-03T12:10:19.619Z,6.40
2023-06-03T12:12:56.247Z,3.60
2023-06-03T12:15:24.719Z,5.80
2023-06-03T12:17:52.550Z,4.50
2023-06-03T12:20:30.103Z,6.00
2023-06-03T12:23:00.393Z,3.70
2023-06-03T12:25:27.798Z,7.80
2023-06-03T12:27:55.739Z,4.70
2023-06-03T12:30:30.240Z,4.40
2023-06-03T12:32:56.887Z,5.90
2023-06-03T12:35:23.798Z,4.40
2023-06-03T12:38:03.797Z,4.70
2023-06-03T12:40:30.317Z,6.10
2023-06-03T12:42:57.325Z,6.30
2023-06-03T12:45:26.350Z,3.40
2023-06-03T12:47:54.243Z,3.90
2023-06-03T12:50:20.952Z,3.80
2023-06-03T12:52:48.512Z,3.40
2023-06-03T12:55:16.982Z,5.50
2023-06-03T12:57:48.523Z,4.00
2023-06-03T13:00:18.227Z,3.70
2023-06-03T13:02:47.339Z,7.50
2023-06-03T13:05:15.079Z,5.00
2023-06-03T13:07:43.216Z,4.20
2023-06-03T13:10:12.049Z,5.10
2023-06-03T13:12:40.353Z,4.00
2023-06-03T13:15:07.875Z,2.80
2023-06-03T13:17:35.219Z,5.10
2023-06-03T13:20:04.066Z,4.50
2023-06-03T13:22:30.611Z,6.40
2023-06-03T13:24:57.114Z,6.20
2023-06-03T13:27:23.942Z,5.70
2023-06-03T13:29:51.050Z,6.60
2023-06-03T13:32:17.640Z,4.80
2023-06-03T13:34:44.530Z,4.20
2023-06-03T13:37:11.469Z,3.10
2023-06-03T13:39:39.063Z,3.40
2023-06-03T13:42:06.996Z,4.40
2023-06-03T13:44:34.250Z,6.20
2023-06-03T13:47:05.597Z,7.30
2023-06-03T13:49:32.230Z,3.40
2023-06-03T13:51:58.916Z,6.00
2023-06-03T13:54:25.637Z,4.40
2023-06-03T13:56:52.451Z,5.30
2023-06-03T13:59:18.928Z,5.50
2023-06-03T14:01:45.385Z,31.30
2023-06-03T14:04:12.267Z,3.40
2023-06-03T14:06:38.733Z,4.40
2023-06-03T14:09:05.363Z,3.00
2023-06-03T14:11:32.205Z,4.10
2023-06-03T14:13:58.756Z,3.40
2023-06-03T14:16:25.670Z,3.70
2023-06-03T14:18:52.256Z,4.50
2023-06-03T14:21:18.798Z,6.00
2023-06-03T14:23:45.454Z,4.00
2023-06-03T14:26:12.054Z,3.20
2023-06-03T14:28:38.518Z,5.20
2023-06-03T14:31:05.044Z,4.00
2023-06-03T14:33:31.726Z,3.90
2023-06-03T14:35:58.195Z,3.00
2023-06-03T14:38:24.704Z,4.00
2023-06-03T14:40:51.241Z,4.10
2023-06-03T14:43:18.083Z,3.50
2023-06-03T14:45:44.828Z,3.30
2023-06-03T14:48:11.560Z,5.80
2023-06-03T14:50:38.255Z,3.50
2023-06-03T14:53:06.026Z,3.50
2023-06-03T14:55:32.657Z,4.40
2023-06-03T14:57:59.594Z,8.60
2023-06-03T15:00:26.094Z,3.40
2023-06-03T15:02:52.721Z,4.80
2023-06-03T15:05:19.440Z,6.00
2023-06-03T15:07:46.084Z,7.30
2023-06-03T15:10:12.932Z,6.10
2023-06-03T15:12:39.422Z,2.90
2023-06-03T15:15:07.019Z,4.70
2023-06-03T15:17:33.576Z,7.90
2023-06-03T15:20:00.156Z,4.20
2023-06-03T15:22:26.739Z,5.20
2023-06-03T15:24:53.290Z,4.70
2023-06-03T15:27:19.735Z,5.50
2023-06-03T15:29:46.194Z,3.80
2023-06-03T15:32:12.715Z,4.50
2023-06-03T15:34:39.173Z,4.50
2023-06-03T15:37:05.669Z,4.50
2023-06-03T15:39:32.179Z,4.40
2023-06-03T15:41:58.679Z,4.90
2023-06-03T15:44:25.952Z,4.30
2023-06-03T15:46:52.545Z,3.60
2023-06-03T15:49:19.258Z,3.50
2023-06-03T15:51:45.779Z,3.10
2023-06-03T15:54:12.335Z,5.60
2023-06-03T15:56:38.792Z,3.80
2023-06-03T15:59:05.348Z,3.20
2023-06-03T16:01:32.552Z,4.40
2023-06-03T16:03:59.100Z,5.80
2023-06-03T16:06:25.742Z,4.80
2023-06-03T16:08:52.599Z,3.60
2023-06-03T16:11:20.098Z,3.80
2023-06-03T16:13:46.617Z,5.20
2023-06-03T16:16:13.092Z,4.00
2023-06-03T16:18:39.525Z,3.80
2023-06-03T16:21:06.133Z,5.30
2023-06-03T16:23:32.743Z,5.90
2023-06-03T16:25:59.470Z,5.10
2023-06-03T16:28:27.287Z,3.10
2023-06-03T16:30:54.024Z,4.60
2023-06-03T16:33:20.924Z,5.60
2023-06-03T16:35:47.445Z,3.70
2023-06-03T16:38:14.172Z,3.60
2023-06-03T16:40:40.805Z,3.80
2023-06-03T16:43:07.275Z,5.80
2023-06-03T16:45:35.295Z,4.30
2023-06-03T16:48:03.621Z,3.10
2023-06-03T16:50:30.204Z,5.60
2023-06-03T16:52:56.696Z,5.50
2023-06-03T16:55:23.197Z,3.50
2023-06-03T16:57:49.875Z,3.50
2023-06-03T17:00:16.893Z,4.10
2023-06-03T17:02:43.344Z,3.50
2023-06-03T17:05:09.893Z,4.40
2023-06-03T17:07:36.514Z,5.90
2023-06-03T17:10:03.228Z,7.30
2023-06-03T17:12:29.886Z,4.60
2023-06-03T17:14:56.493Z,5.10
2023-06-03T17:17:23.014Z,7.00
2023-06-03T17:19:49.502Z,5.90
2023-06-03T17:22:16.099Z,4.20
2023-06-03T17:24:42.605Z,5.40
2023-06-03T17:27:09.083Z,7.30
2023-06-03T17:29:35.593Z,8.20
2023-06-03T17:32:02.387Z,5.00
2023-06-03T17:34:29.019Z,3.40
2023-06-03T17:36:55.789Z,5.60
2023-06-03T17:39:22.285Z,4.70
2023-06-03T17:41:49.068Z,5.60
2023-06-03T17:44:19.685Z,7.50
2023-06-03T17:46:46.440Z,6.20
2023-06-03T17:49:13.073Z,6.30
2023-06-03T17:51:39.769Z,5.90
2023-06-03T17:54:06.524Z,6.60
2023-06-03T17:56:32.995Z,5.20
2023-06-03T17:58:59.652Z,7.40
2023-06-03T18:01:26.243Z,7.60
2023-06-03T18:03:52.748Z,5.80
2023-06-03T18:06:19.538Z,6.80
2023-06-03T18:08:46.103Z,6.10
2023-06-03T18:11:12.680Z,6.30
2023-06-03T18:13:39.464Z,5.70
2023-06-03T18:16:06.755Z,7.00
2023-06-03T18:18:33.384Z,7.70
2023-06-03T18:20:59.977Z,9.30
2023-06-03T18:23:26.491Z,11.60
2023-06-03T18:25:52.980Z,7.90
2023-06-03T18:28:19.519Z,9.80
2023-06-03T18:30:46.025Z,9.40
2023-06-03T18:33:12.596Z,11.00
2023-06-03T18:35:39.112Z,9.50
2023-06-03T18:38:05.697Z,14.70
2023-06-03T18:40:32.144Z,8.90
2023-06-03T18:42:58.657Z,7.40
2023-06-03T18:45:25.388Z,9.70
2023-06-03T18:47:51.948Z,7.90
2023-06-03T18:50:18.685Z,11.80
2023-06-03T18:52:45.159Z,9.60
2023-06-03T18:55:11.789Z,8.60
2023-06-03T18:57:38.313Z,12.20
2023-06-03T19:00:05.364Z,10.50
2023-06-03T19:02:32.075Z,12.60
2023-06-03T19:04:58.787Z,9.30
2023-06-03T19:07:25.427Z,14.70
2023-06-03T19:09:52.064Z,14.50
2023-06-03T19:12:18.669Z,9.40
2023-06-03T19:14:45.417Z,11.00
2023-06-03T19:17:11.931Z,11.10
2023-06-03T19:19:38.443Z,15.50
2023-06-03T19:22:05.596Z,15.80
2023-06-03T19:24:32.110Z,13.90
2023-06-03T19:26:58.709Z,12.90
2023-06-03T19:29:25.241Z,13.50
2023-06-03T19:31:51.778Z,12.20
2023-06-03T19:34:18.367Z,17.60
2023-06-03T19:36:44.911Z,17.60
2023-06-03T19:39:11.481Z,16.60
2023-06-03T19:41:38.161Z,17.10
2023-06-03T19:44:04.674Z,18.40
2023-06-03T19:46:31.172Z,23.50
2023-06-03T19:48:57.881Z,20.60
2023-06-03T19:51:24.334Z,17.90
2023-06-03T19:53:50.798Z,19.00
2023-06-03T19:56:17.449Z,21.90
2023-06-03T19:58:44.129Z,17.70
2023-06-03T20:01:11.027Z,26.10
2023-06-03T20:03:37.953Z,23.10
2023-06-03T20:06:04.506Z,23.50
2023-06-03T20:08:31.131Z,21.00
2023-06-03T20:10:57.727Z,19.30
2023-06-03T20:13:34.003Z,18.40
2023-06-03T20:16:06.573Z,16.90
2023-06-03T20:18:33.872Z,21.50
2023-06-03T20:21:00.815Z,21.90
2023-06-03T20:23:27.401Z,23.20
2023-06-03T20:25:54.168Z,18.50
2023-06-03T20:28:20.826Z,14.90
2023-06-03T20:30:47.338Z,17.70
2023-06-03T20:33:13.918Z,14.70
2023-06-03T20:35:40.368Z,21.00
2023-06-03T20:38:07.080Z,20.30
2023-06-03T20:40:36.861Z,17.00
2023-06-03T20:43:03.337Z,17.00
2023-06-03T20:45:30.757Z,19.50
2023-06-03T20:47:57.427Z,18.90
2023-06-03T20:50:24.498Z,18.90
2023-06-03T20:52:51.249Z,15.50
2023-06-03T20:55:17.796Z,18.30
2023-06-03T20:57:44.359Z,16.40
2023-06-03T21:00:11.342Z,22.20
2023-06-03T21:02:37.996Z,17.60
2023-06-03T21:05:04.968Z,17.70
2023-06-03T21:07:31.698Z,20.90
2023-06-03T21:09:58.145Z,19.90
2023-06-03T21:12:24.630Z,20.70
2023-06-03T21:14:52.391Z,20.40
2023-06-03T21:17:20.132Z,21.70
2023-06-03T21:19:47.301Z,25.40
2023-06-03T21:22:13.940Z,23.10
2023-06-03T21:24:40.491Z,20.90
2023-06-03T21:27:07.171Z,17.50
2023-06-03T21:29:33.825Z,23.70
2023-06-03T21:32:00.572Z,20.80
2023-06-03T21:34:27.288Z,22.50
2023-06-03T21:36:53.797Z,23.40
2023-06-03T21:39:20.283Z,20.10
2023-06-03T21:41:46.980Z,23.40
2023-06-03T21:44:13.508Z,17.10
2023-06-03T21:46:40.477Z,17.60
2023-06-03T21:49:06.948Z,22.30
2023-06-03T21:51:34.240Z,20.20
2023-06-03T21:54:00.934Z,18.20
2023-06-03T21:56:27.429Z,19.00
2023-06-03T21:58:54.088Z,15.60
2023-06-03T22:01:20.670Z,17.60
2023-06-03T22:03:47.431Z,16.50
2023-06-03T22:06:14.236Z,18.90
2023-06-03T22:08:40.770Z,18.10
2023-06-03T22:11:07.553Z,14.80
2023-06-03T22:13:34.499Z,19.40
2023-06-03T22:16:01.223Z,21.30
2023-06-03T22:18:27.743Z,14.70
2023-06-03T22:20:54.523Z,21.50
2023-06-03T22:23:22.205Z,17.30
2023-06-03T22:25:48.838Z,19.50
2023-06-03T22:28:15.339Z,19.00
2023-06-03T22:30:41.840Z,21.20
2023-06-03T22:33:08.753Z,21.40
2023-06-03T22:35:38.339Z,20.10
2023-06-03T22:38:04.999Z,17.50
2023-06-03T22:40:31.663Z,19.30
2023-06-03T22:42:58.239Z,15.90
2023-06-03T22:45:24.899Z,16.70
2023-06-03T22:47:51.998Z,17.30
2023-06-03T22:50:19.573Z,21.40
2023-06-03T22:52:46.039Z,16.50
2023-06-03T22:55:12.654Z,18.30
2023-06-03T22:57:39.195Z,19.30
2023-06-03T23:00:06.904Z,18.20
2023-06-03T23:02:33.580Z,13.30
2023-06-03T23:05:00.357Z,14.80
2023-06-03T23:07:26.935Z,14.70
2023-06-03T23:09:53.738Z,18.00
2023-06-03T23:12:20.380Z,17.20
2023-06-03T23:14:46.828Z,16.50
2023-06-03T23:17:13.402Z,17.70
2023-06-03T23:19:40.918Z,15.50
2023-06-03T23:22:07.742Z,17.80
2023-06-03T23:24:34.211Z,15.60
2023-06-03T23:27:00.724Z,18.90
2023-06-03T23:29:27.182Z,17.90
2023-06-03T23:31:53.700Z,15.70
2023-06-03T23:34:20.380Z,20.20
2023-06-03T23:36:46.927Z,19.50
2023-06-03T23:39:13.420Z,18.00
2023-06-03T23:41:39.988Z,19.50
2023-06-03T23:44:06.675Z,18.80
2023-06-03T23:46:33.251Z,22.50
2023-06-03T23:48:59.931Z,20.10
2023-06-03T23:51:26.647Z,15.80
2023-06-03T23:53:53.229Z,19.60
2023-06-03T23:56:19.760Z,16.70
2023-06-03T23:58:46.447Z,16.50
